Sunday, December 16, 2018, 4:11 PM GMT
Back to Local

CWST, La Pocatiere

Location: , , Canada Lat: 47.35
Local Time: 4:11 PM GMT (16:11 GMT) Lon: -70.033
Time Zone: GMT Elev: 101 ft

Show me the last for .
Show Coded

Time T Td Feel RH Dir Speed Gust Alt SLP Vis Weather Sky Remarks
2018-12-16 15:00 28 24 20 84 120° 8 - - 30.22 0 None
2018-12-16 14:00 24 22 15 88 120° 9 - - 30.23 0 None
2018-12-16 13:00 22 20 13 92 120° 8 - - 30.23 0 None
2018-12-16 12:00 16 14 8 93 220° 5 - - 30.24 0 None
2018-12-16 11:00 24 22 16 94 120° 6 - - 30.25 0 None
2018-12-16 10:00 24 22 - 94 70° 2 - - 30.24 0 None
2018-12-16 09:00 25 24 19 94 100° 5 - - 30.23 0 None
2018-12-16 08:00 22 22 - 96 110° 2 - - 30.25 0 None
2018-12-16 07:00 26 26 22 97 90° 3 - - 30.24 0 None
2018-12-16 06:00 24 26 - 106 110° 2 - - 30.25 0 None
2018-12-16 05:00 29 28 - 97 250° 2 - - 30.26 0 None
2018-12-16 04:00 28 27 22 94 250° 6 - - 30.24 0 None
2018-12-16 03:00 29 28 - 94 180° 1 - - 30.23 0 None
2018-12-16 02:00 33 31 24 90 240° 12 - - 30.23 0 None
2018-12-16 01:00 35 32 27 88 240° 10 - - 30.22 0 None
2018-12-16 00:00 35 33 30 93 230° 6 - - 30.21 0 None
2018-12-15 23:00 35 33 27 93 230° 12 - - 30.20 0 None
2018-12-15 22:00 34 33 25 95 230° 13 - - 30.18 0 None
2018-12-15 21:00 35 33 27 91 240° 12 - - 30.16 0 None
2018-12-15 20:00 35 33 26 92 230° 14 - - 30.13 0 Peak wind: 21 mph (19 kts) from 230° at 00 min
2018-12-15 19:00 35 33 25 93 230° 16 - - 30.10 0 Peak wind: 21 mph (19 kts) from 220° at 05 min
2018-12-15 18:00 35 33 23 93 230° 18 24 - 30.08 0 Peak wind: 25 mph (22 kts) from 230° at 01 min
2018-12-15 17:00 35 33 23 95 230° 20 - - 30.07 0 Peak wind: 27 mph (24 kts) from 220° at 25 min

Support USWX by starting your Amazon purchase here.